Close

Questo sito utlizza cookie. Può leggere come li usiamo nella nostra Privacy Policy.

Ronchi Tower
Ronchi Tower

From Facebook

METAR & TAF

2018/08/20 02:50 LIPQ 200250Z AUTO 35006KT 9999 NCD 20/17 Q1015
2018/08/19 18:21 TAF LIPQ 191700Z 1918/2018 VRB05KT CAVOK
2018/08/20 02:50 LIPZ 200250Z VRB02KT CAVOK 23/16 Q1015 NOSIG
2018/08/19 18:26 TAF LIPZ 191700Z 1918/2024 04010KT CAVOK
2018/08/20 02:50 LIPH 200250Z AUTO VRB01KT 9999 NCD 23/16 Q1015
2018/08/19 18:21 TAF LIPH 191700Z 1918/2018 VRB05KT CAVOK
2018/08/20 02:50 LIRF 200250Z 05004KT CAVOK 21/18 Q1013 NOSIG
2018/08/19 18:26 TAF LIRF 191700Z 1918/2024 28010KT 9999 SCT030 BECMG 1918/1920 VRB05KT BECMG 2009/2011 27012KT TEMPO 2014/2017 4000 TSRA BECMG 2017/2019 VRB04KT
2018/08/19 20:50 LIML 192050Z 06005KT CAVOK 27/19 Q1017 NOSIG
2018/08/19 18:21 TAF LIML 191700Z 1918/2018 VRB05KT CAVOK
2018/08/20 02:50 EDDM 200250Z 25006KT CAVOK 16/13 Q1020 NOSIG
2018/08/19 18:27 TAF EDDM 191700Z 1918/2024 34005KT CAVOK BECMG 1918/1920 24005KT BECMG 2007/2009 30006KT
2018/08/20 02:50 EGSS 200250Z AUTO VRB03KT 9999 SCT019 OVC031 18/15 Q1020
2018/08/19 21:23 TAF AMD EGSS 192116Z 1921/2024 29006KT 9999 BKN020 PROB30 TEMPO 2004/2008 7000 BKN012 PROB30 TEMPO 2012/2017 8000 -SHRA

FlightRadar24

Radar Meteo

Traffic data

Marzo 2018

Passeggeri: 57555-3,4% (rank: 23)
Nazionali 39679 +1,0% 21°
Internazionali 17689 -11,7% 23°

Movimenti: 1074-16,3% (rank: 21)
Tot commerciale 653 -10,3% 22°
Aviazione generale 421 -24,1%

Cargo (tons): 96,3109,5% (rank: 18)

Gennaio - Marzo 2018

Passeggeri: 155953-1,4% (rank: 23)
Nazionali 108431 +3,9% 21°
Internazionali 47066 -11,5% 22°

Movimenti: 3163-14,5% (rank: 21)
Tot commerciale 1876 -7,3% 21°
Aviazione generale 1287 -23,3%

Cargo (tons): 125,6+16,7% (rank: 21)

Photo

Douglas DC-6B
Douglas DC-6B
Distinct views: 16
Douglas DC-6B
Douglas DC-6B
Distinct views: 60
Douglas DC-6B
Douglas DC-6B
Distinct views: 206
Hawker Beechcraft 4000
Hawker Beechcraft 4000
Total views: 224